createdAt,value
2022-08-14T00:03:35.038Z,13.73
2022-08-14T00:08:43.775Z,12.10
2022-08-14T00:13:46.513Z,16.63
2022-08-14T00:19:06.402Z,21.13
2022-08-14T00:24:10.783Z,13.35
2022-08-14T00:29:27.125Z,14.43
2022-08-14T00:34:36.754Z,9.98
2022-08-14T00:39:36.316Z,9.65
2022-08-14T00:44:35.361Z,10.18
2022-08-14T00:49:43.119Z,10.55
2022-08-14T00:54:43.467Z,14.05
2022-08-14T00:59:45.030Z,9.32
2022-08-14T01:04:53.452Z,10.20
2022-08-14T01:09:58.777Z,11.60
2022-08-14T01:14:58.907Z,10.63
2022-08-14T01:20:27.754Z,8.90
2022-08-14T01:25:28.212Z,8.98
2022-08-14T01:30:26.600Z,9.25
2022-08-14T01:36:05.627Z,8.85
2022-08-14T01:40:47.951Z,9.02
2022-08-14T01:46:06.027Z,8.73
2022-08-14T01:51:19.286Z,10.80
2022-08-14T01:56:36.898Z,7.60
2022-08-14T02:01:38.147Z,8.60
2022-08-14T02:06:43.150Z,7.55
2022-08-14T02:11:45.344Z,7.53
2022-08-14T02:16:54.258Z,6.50
2022-08-14T02:21:55.578Z,6.85
2022-08-14T02:28:23.366Z,8.40
2022-08-14T02:32:30.318Z,7.97
2022-08-14T02:37:45.671Z,12.55
2022-08-14T02:42:54.950Z,8.32
2022-08-14T02:47:57.407Z,8.52
2022-08-14T02:53:03.324Z,7.30
2022-08-14T02:58:06.028Z,8.02
2022-08-14T03:03:08.008Z,6.88
2022-08-14T03:08:16.015Z,7.60
2022-08-14T03:13:21.162Z,7.55
2022-08-14T03:18:31.847Z,7.20
2022-08-14T03:23:37.701Z,7.40
2022-08-14T03:28:40.597Z,9.38
2022-08-14T03:33:41.203Z,9.23
2022-08-14T03:39:12.415Z,13.23
2022-08-14T03:45:27.468Z,8.07
2022-08-14T03:49:29.285Z,7.55
2022-08-14T03:54:34.582Z,7.95
2022-08-14T03:59:33.080Z,7.78
2022-08-14T04:04:33.594Z,7.80
2022-08-14T04:09:33.898Z,7.63
2022-08-14T04:14:33.098Z,7.15
2022-08-14T04:19:36.720Z,7.00
2022-08-14T04:24:40.654Z,7.68
2022-08-14T04:29:40.778Z,8.30
2022-08-14T04:34:42.180Z,8.10
2022-08-14T04:40:03.119Z,7.97
2022-08-14T04:45:01.878Z,7.25
2022-08-14T04:50:03.555Z,7.43
2022-08-14T04:55:02.846Z,8.30
2022-08-14T05:00:03.314Z,8.30
2022-08-14T05:05:01.369Z,9.60
2022-08-14T05:09:59.641Z,8.43
2022-08-14T05:15:00.747Z,9.75
2022-08-14T05:21:54.943Z,9.35
2022-08-14T05:25:21.458Z,9.73
2022-08-14T05:30:22.810Z,9.35
2022-08-14T05:35:23.582Z,9.10
2022-08-14T05:40:24.088Z,9.30
2022-08-14T05:45:22.519Z,9.45
2022-08-14T05:50:22.694Z,9.75
2022-08-14T05:55:23.348Z,9.75
2022-08-14T06:00:29.836Z,11.02
2022-08-14T06:05:32.560Z,10.85
2022-08-14T06:10:38.044Z,10.48
2022-08-14T06:15:35.978Z,10.38
2022-08-14T06:20:35.618Z,9.38
2022-08-14T06:25:34.565Z,9.63
2022-08-14T06:30:46.367Z,10.93
2022-08-14T06:35:47.913Z,12.57
2022-08-14T06:40:46.293Z,11.50
2022-08-14T06:45:53.677Z,10.23
2022-08-14T06:50:58.306Z,9.93
2022-08-14T06:56:00.643Z,9.98
2022-08-14T07:01:26.829Z,14.05
2022-08-14T07:06:46.367Z,12.57
2022-08-14T07:11:45.682Z,13.45
2022-08-14T07:16:46.701Z,11.68
2022-08-14T07:21:46.571Z,17.02
2022-08-14T07:26:48.692Z,12.23
2022-08-14T07:31:46.423Z,16.00
2022-08-14T07:36:58.233Z,14.02
2022-08-14T07:42:02.606Z,13.27
2022-08-14T07:47:05.332Z,15.40
2022-08-14T07:52:04.263Z,13.40
2022-08-14T07:57:12.185Z,16.55
2022-08-14T08:02:18.779Z,13.40
2022-08-14T08:07:19.376Z,19.92
2022-08-14T08:12:20.753Z,14.00
2022-08-14T08:17:20.784Z,16.25
2022-08-14T08:22:23.875Z,18.35
2022-08-14T08:27:25.247Z,18.95
2022-08-14T08:32:29.894Z,17.80
2022-08-14T08:37:32.658Z,14.25
2022-08-14T08:42:44.944Z,14.18
2022-08-14T08:47:46.549Z,15.65
2022-08-14T08:52:51.302Z,18.08
2022-08-14T08:57:56.840Z,21.23
2022-08-14T09:03:05.553Z,12.55
2022-08-14T09:08:31.432Z,20.08
2022-08-14T09:13:33.212Z,11.88
2022-08-14T09:18:33.952Z,11.45
2022-08-14T09:23:34.762Z,14.32
2022-08-14T09:28:34.555Z,22.10
2022-08-14T09:34:04.359Z,14.23
2022-08-14T09:39:23.080Z,6.60
2022-08-14T09:44:54.528Z,10.38
2022-08-14T09:49:53.771Z,6.28
2022-08-14T09:54:51.455Z,5.95
2022-08-14T10:00:30.564Z,4.60
2022-08-14T10:05:34.044Z,5.00
2022-08-14T10:10:41.750Z,5.75
2022-08-14T10:15:46.794Z,10.20
2022-08-14T10:20:58.480Z,8.23
2022-08-14T10:26:23.064Z,4.35
2022-08-14T10:31:44.808Z,5.40
2022-08-14T10:37:02.651Z,6.68
2022-08-14T10:42:16.502Z,7.22
2022-08-14T10:47:40.015Z,7.20
2022-08-14T10:52:57.085Z,6.40
2022-08-14T10:57:59.875Z,6.20
2022-08-14T11:03:02.675Z,8.60
2022-08-14T11:08:09.209Z,4.55
2022-08-14T11:13:17.301Z,6.78
2022-08-14T11:18:20.507Z,7.88
2022-08-14T11:23:38.282Z,7.50
2022-08-14T11:28:49.831Z,7.47
2022-08-14T11:33:59.546Z,9.35
2022-08-14T11:39:03.037Z,9.03
2022-08-14T11:44:17.524Z,8.63
2022-08-14T11:49:35.505Z,9.43
2022-08-14T11:54:36.434Z,9.20
2022-08-14T11:59:35.479Z,13.88
2022-08-14T12:04:54.181Z,10.05
2022-08-14T12:09:57.120Z,9.60
2022-08-14T12:15:00.274Z,7.20
2022-08-14T12:20:03.136Z,7.07
2022-08-14T12:25:08.491Z,7.03
2022-08-14T12:30:14.403Z,21.50
2022-08-14T12:35:22.829Z,65.88
2022-08-14T12:40:25.177Z,62.33
2022-08-14T12:45:33.484Z,30.83
2022-08-14T12:50:42.273Z,22.27
2022-08-14T12:56:21.431Z,25.38
2022-08-14T13:01:56.792Z,27.38
2022-08-14T13:06:55.874Z,20.38
2022-08-14T13:11:58.976Z,25.45
2022-08-14T13:17:20.856Z,33.38
2022-08-14T13:22:32.110Z,23.65
2022-08-14T13:27:39.088Z,22.13
2022-08-14T13:32:48.257Z,27.92
2022-08-14T13:37:53.564Z,23.73
2022-08-14T13:42:57.273Z,26.30
2022-08-14T13:53:02.561Z,24.25
2022-08-14T13:58:05.367Z,21.67
2022-08-14T14:03:08.642Z,21.35
2022-08-14T14:08:18.606Z,23.67
2022-08-14T14:13:26.659Z,26.88
2022-08-14T14:18:34.507Z,21.83
2022-08-14T14:23:40.710Z,24.42
2022-08-14T14:28:39.210Z,19.67
2022-08-14T14:33:51.239Z,20.20
2022-08-14T14:39:04.186Z,18.38
2022-08-14T14:44:03.180Z,16.05
2022-08-14T14:49:07.952Z,15.02
2022-08-14T14:54:09.402Z,14.32
2022-08-14T14:59:14.407Z,13.63
2022-08-14T15:04:20.965Z,12.25
2022-08-14T15:09:20.400Z,14.80
2022-08-14T15:14:56.167Z,16.65
2022-08-14T15:19:42.475Z,18.70
2022-08-14T15:24:59.254Z,22.27
2022-08-14T15:34:58.300Z,13.60
2022-08-14T15:39:57.362Z,10.48
2022-08-14T15:45:01.270Z,11.13
2022-08-14T15:50:04.538Z,10.73
2022-08-14T15:55:04.588Z,9.82
2022-08-14T16:00:40.575Z,10.05
2022-08-14T16:05:50.724Z,11.20
2022-08-14T16:10:51.056Z,9.70
2022-08-14T16:15:59.745Z,9.90
2022-08-14T16:21:21.353Z,10.57
2022-08-14T16:26:29.107Z,10.52
2022-08-14T16:31:35.747Z,9.70
2022-08-14T16:36:38.349Z,11.07
2022-08-14T16:42:39.507Z,10.82
2022-08-14T16:47:25.463Z,12.55
2022-08-14T16:52:54.801Z,13.30
2022-08-14T16:57:58.834Z,13.45
2022-08-14T17:03:13.457Z,12.18
2022-08-14T17:08:32.400Z,9.88
2022-08-14T17:13:59.468Z,11.30
2022-08-14T17:19:04.798Z,12.02
2022-08-14T17:24:56.838Z,10.48
2022-08-14T17:29:54.446Z,10.55
2022-08-14T17:35:02.371Z,10.73
2022-08-14T17:40:19.847Z,11.65
2022-08-14T17:45:47.186Z,12.95
2022-08-14T17:51:01.103Z,12.10
2022-08-14T17:56:03.956Z,14.75
2022-08-14T18:01:08.881Z,12.38
2022-08-14T18:06:39.044Z,11.60
2022-08-14T18:11:46.368Z,16.13
2022-08-14T18:16:47.988Z,13.65
2022-08-14T18:21:57.004Z,15.02
2022-08-14T18:27:10.660Z,15.85
2022-08-14T18:32:31.954Z,14.45
2022-08-14T18:37:37.773Z,15.85
2022-08-14T18:48:06.493Z,15.50
2022-08-14T18:53:09.037Z,16.45
2022-08-14T18:58:25.973Z,17.42
2022-08-14T19:03:50.256Z,15.20
2022-08-14T19:09:02.987Z,16.55
2022-08-14T19:14:05.617Z,17.85
2022-08-14T19:19:35.103Z,17.17
2022-08-14T19:24:50.135Z,16.67
2022-08-14T19:29:51.254Z,17.45
2022-08-14T19:34:53.057Z,17.63
2022-08-14T19:39:57.123Z,18.05
2022-08-14T19:44:56.413Z,17.50
2022-08-14T19:50:30.231Z,17.13
2022-08-14T19:55:34.671Z,17.52
2022-08-14T20:00:52.020Z,18.48
2022-08-14T20:06:05.391Z,16.45
2022-08-14T20:11:42.935Z,13.95
2022-08-14T20:17:03.258Z,16.65
2022-08-14T20:22:36.407Z,18.40
2022-08-14T20:27:59.576Z,16.48
2022-08-14T20:33:03.353Z,16.98
2022-08-14T20:38:29.680Z,17.13
2022-08-14T20:43:56.347Z,17.42
2022-08-14T20:49:00.818Z,18.17
2022-08-14T20:54:02.782Z,18.83
2022-08-14T20:59:18.234Z,19.08
2022-08-14T21:04:56.958Z,19.25
2022-08-14T21:11:04.954Z,20.17
2022-08-14T21:16:30.826Z,18.85
2022-08-14T21:21:40.584Z,19.42
2022-08-14T21:27:04.404Z,21.65
2022-08-14T21:32:50.539Z,20.27
2022-08-14T21:38:18.201Z,20.25
2022-08-14T21:43:22.752Z,20.35
2022-08-14T21:48:21.694Z,20.55
2022-08-14T21:53:25.765Z,20.35
2022-08-14T21:58:54.547Z,16.98
2022-08-14T22:03:55.186Z,18.17
2022-08-14T22:08:55.827Z,17.25
2022-08-14T22:14:02.110Z,17.65
2022-08-14T22:19:21.506Z,16.95
2022-08-14T22:24:38.372Z,16.05
2022-08-14T22:29:54.876Z,15.75
2022-08-14T22:34:58.054Z,17.55
2022-08-14T22:40:43.510Z,17.38
2022-08-14T22:45:16.901Z,16.70
2022-08-14T22:50:30.506Z,15.82
2022-08-14T22:55:31.299Z,17.15
2022-08-14T23:00:35.724Z,16.65
2022-08-14T23:05:40.293Z,16.00
2022-08-14T23:10:55.215Z,17.75
2022-08-14T23:15:56.100Z,17.15
2022-08-14T23:20:55.704Z,17.00
2022-08-14T23:25:59.428Z,16.13
2022-08-14T23:31:05.560Z,14.13
2022-08-14T23:36:28.238Z,15.48
2022-08-14T23:41:24.648Z,15.93
2022-08-14T23:46:34.639Z,16.13
2022-08-14T23:51:38.685Z,15.15
2022-08-14T23:56:37.459Z,15.75
